Strona główna
METAR-TAF:

METAR-TAF

Lotnisko :

Harrisburg, Pensylwania, Stany Zjednoczone

Szerokość geograficzna: 40-13-02N, Długość geograficzna: 076-51-05W, wysokość: 106 m

Aktualna obserwacja pogody

Raport powstał 1 godzina i 8 minut temu, godzina 09:56 UTC
Wiatr 5 kt od zachodnio-południowy zachód
Temperatura 3°C
Wilgotność 75%
Ciśnienie 1024 hPa
Widzialność: 16.1 km
bezchmurnie

METAR: KCXY 220956Z AUTO 25005KT 10SM CLR 03/M01 A3025 RMK AO2 SLP247 T00331011

czas: 07:04 (11:04 UTC)


TAF: brakujący

Obserwacja i prognoza pogody dla ponad 4000 lotnisk (raport METAR i TAF).

Dostępne stacje oznaczono żółtymi i czerwonymi punktami na mapie.

Najedź kursorem aby zobaczyć nazwę stacji.

Kliknij aby zobaczyć obserwacje i prognozy pogody.

Aby zmienić mapę: kliknij na zielony przycisk z czarnym krzyżykiem, aby powiększyć; na zielony przycisk z myślnikiem, aby pomniejszyć; na zielone strzałki, aby przejść do map sąsiednich.


METAR-TAF: